sensor_id;sensor_type;location;lat;lon;timestamp;temperature;humidity
42261;DHT22;27926;48.062;7.474;2023-10-13T00:00:44;15.20;99.90
42261;DHT22;27926;48.062;7.474;2023-10-13T00:03:12;15.30;99.90
42261;DHT22;27926;48.062;7.474;2023-10-13T00:05:39;15.30;99.90
42261;DHT22;27926;48.062;7.474;2023-10-13T00:08:06;15.20;99.90
42261;DHT22;27926;48.062;7.474;2023-10-13T00:10:31;15.20;99.90
42261;DHT22;27926;48.062;7.474;2023-10-13T00:12:57;15.20;99.90
42261;DHT22;27926;48.062;7.474;2023-10-13T00:15:33;15.10;99.90
42261;DHT22;27926;48.062;7.474;2023-10-13T00:18:03;15.10;99.90
42261;DHT22;27926;48.062;7.474;2023-10-13T00:20:36;15.10;99.90
42261;DHT22;27926;48.062;7.474;2023-10-13T00:23:02;15.10;99.90
42261;DHT22;27926;48.062;7.474;2023-10-13T00:25:27;15.20;99.90
42261;DHT22;27926;48.062;7.474;2023-10-13T00:27:52;15.10;99.90
42261;DHT22;27926;48.062;7.474;2023-10-13T00:30:17;15.10;99.90
42261;DHT22;27926;48.062;7.474;2023-10-13T00:32:44;15.00;99.90
42261;DHT22;27926;48.062;7.474;2023-10-13T00:35:16;15.00;99.90
42261;DHT22;27926;48.062;7.474;2023-10-13T00:37:49;14.90;99.90
42261;DHT22;27926;48.062;7.474;2023-10-13T00:40:17;14.90;99.90
42261;DHT22;27926;48.062;7.474;2023-10-13T00:43:05;14.90;99.90
42261;DHT22;27926;48.062;7.474;2023-10-13T00:45:54;14.90;99.90
42261;DHT22;27926;48.062;7.474;2023-10-13T00:48:30;14.90;99.90
42261;DHT22;27926;48.062;7.474;2023-10-13T00:51:07;14.90;99.90
42261;DHT22;27926;48.062;7.474;2023-10-13T00:53:35;15.00;99.90
42261;DHT22;27926;48.062;7.474;2023-10-13T00:56:04;15.10;99.90
42261;DHT22;27926;48.062;7.474;2023-10-13T00:58:35;15.20;99.90
42261;DHT22;27926;48.062;7.474;2023-10-13T01:01:01;15.40;99.90
42261;DHT22;27926;48.062;7.474;2023-10-13T01:03:41;15.60;99.90
42261;DHT22;27926;48.062;7.474;2023-10-13T01:06:07;15.70;99.90
42261;DHT22;27926;48.062;7.474;2023-10-13T01:08:33;15.80;99.90
42261;DHT22;27926;48.062;7.474;2023-10-13T01:10:59;15.90;99.90
42261;DHT22;27926;48.062;7.474;2023-10-13T01:13:24;16.00;99.90
42261;DHT22;27926;48.062;7.474;2023-10-13T01:15:48;16.10;99.90
42261;DHT22;27926;48.062;7.474;2023-10-13T01:18:13;16.10;99.90
42261;DHT22;27926;48.062;7.474;2023-10-13T01:20:38;16.20;99.90
42261;DHT22;27926;48.062;7.474;2023-10-13T01:23:16;16.20;99.90
42261;DHT22;27926;48.062;7.474;2023-10-13T01:25:45;16.20;99.90
42261;DHT22;27926;48.062;7.474;2023-10-13T01:28:09;16.20;99.90
42261;DHT22;27926;48.062;7.474;2023-10-13T01:30:34;16.10;99.90
42261;DHT22;27926;48.062;7.474;2023-10-13T01:33:02;16.10;99.90
42261;DHT22;27926;48.062;7.474;2023-10-13T01:35:28;16.00;99.90
42261;DHT22;27926;48.062;7.474;2023-10-13T01:38:01;16.00;99.90
42261;DHT22;27926;48.062;7.474;2023-10-13T01:40:25;15.90;99.90
42261;DHT22;27926;48.062;7.474;2023-10-13T01:42:53;15.90;99.90
42261;DHT22;27926;48.062;7.474;2023-10-13T01:45:19;15.90;99.90
42261;DHT22;27926;48.062;7.474;2023-10-13T01:47:44;15.90;99.90
42261;DHT22;27926;48.062;7.474;2023-10-13T01:50:09;15.80;99.90
42261;DHT22;27926;48.062;7.474;2023-10-13T01:52:45;15.80;99.90
42261;DHT22;27926;48.062;7.474;2023-10-13T01:55:09;15.80;99.90
42261;DHT22;27926;48.062;7.474;2023-10-13T01:57:35;15.80;99.90
42261;DHT22;27926;48.062;7.474;2023-10-13T02:00:00;15.80;99.90
42261;DHT22;27926;48.062;7.474;2023-10-13T02:02:43;15.70;99.90
42261;DHT22;27926;48.062;7.474;2023-10-13T02:05:09;15.70;99.90
42261;DHT22;27926;48.062;7.474;2023-10-13T02:07:34;15.60;99.90
42261;DHT22;27926;48.062;7.474;2023-10-13T02:09:58;15.60;99.90
42261;DHT22;27926;48.062;7.474;2023-10-13T02:12:23;15.50;99.90
42261;DHT22;27926;48.062;7.474;2023-10-13T02:14:56;15.50;99.90
42261;DHT22;27926;48.062;7.474;2023-10-13T02:17:25;15.40;99.90
42261;DHT22;27926;48.062;7.474;2023-10-13T02:19:50;15.40;99.90
42261;DHT22;27926;48.062;7.474;2023-10-13T02:22:18;15.40;99.90
42261;DHT22;27926;48.062;7.474;2023-10-13T02:24:52;15.30;99.90
42261;DHT22;27926;48.062;7.474;2023-10-13T02:27:17;15.30;99.90
42261;DHT22;27926;48.062;7.474;2023-10-13T02:29:41;15.30;99.90
42261;DHT22;27926;48.062;7.474;2023-10-13T02:32:10;15.20;99.90
42261;DHT22;27926;48.062;7.474;2023-10-13T02:34:43;15.20;99.90
42261;DHT22;27926;48.062;7.474;2023-10-13T02:37:09;15.20;99.90
42261;DHT22;27926;48.062;7.474;2023-10-13T02:39:34;15.20;99.90
42261;DHT22;27926;48.062;7.474;2023-10-13T02:42:00;15.10;99.90
42261;DHT22;27926;48.062;7.474;2023-10-13T02:44:25;15.10;99.90
42261;DHT22;27926;48.062;7.474;2023-10-13T02:46:56;15.10;99.90
42261;DHT22;27926;48.062;7.474;2023-10-13T02:49:21;15.00;99.90
42261;DHT22;27926;48.062;7.474;2023-10-13T02:51:45;15.00;99.90
42261;DHT22;27926;48.062;7.474;2023-10-13T02:54:11;14.90;99.90
42261;DHT22;27926;48.062;7.474;2023-10-13T02:56:45;14.90;99.90
42261;DHT22;27926;48.062;7.474;2023-10-13T02:59:21;14.80;99.90
42261;DHT22;27926;48.062;7.474;2023-10-13T03:01:58;14.70;99.90
42261;DHT22;27926;48.062;7.474;2023-10-13T03:04:23;14.60;99.90
42261;DHT22;27926;48.062;7.474;2023-10-13T03:06:50;14.60;99.90
42261;DHT22;27926;48.062;7.474;2023-10-13T03:09:14;14.50;99.90
42261;DHT22;27926;48.062;7.474;2023-10-13T03:11:40;14.50;99.90
42261;DHT22;27926;48.062;7.474;2023-10-13T03:14:06;14.50;99.90
42261;DHT22;27926;48.062;7.474;2023-10-13T03:16:32;14.50;99.90
42261;DHT22;27926;48.062;7.474;2023-10-13T03:18:59;14.40;99.90
42261;DHT22;27926;48.062;7.474;2023-10-13T03:21:23;14.40;99.90
42261;DHT22;27926;48.062;7.474;2023-10-13T03:23:56;14.30;99.90
42261;DHT22;27926;48.062;7.474;2023-10-13T03:26:23;14.20;99.90
42261;DHT22;27926;48.062;7.474;2023-10-13T03:28:47;14.20;99.90
42261;DHT22;27926;48.062;7.474;2023-10-13T03:31:16;14.10;99.90
42261;DHT22;27926;48.062;7.474;2023-10-13T03:33:42;14.00;99.90
42261;DHT22;27926;48.062;7.474;2023-10-13T03:36:10;14.00;99.90
42261;DHT22;27926;48.062;7.474;2023-10-13T03:38:51;13.80;99.90
42261;DHT22;27926;48.062;7.474;2023-10-13T03:41:19;13.70;99.90
42261;DHT22;27926;48.062;7.474;2023-10-13T03:43:45;13.70;99.90
42261;DHT22;27926;48.062;7.474;2023-10-13T03:46:09;13.60;99.90
42261;DHT22;27926;48.062;7.474;2023-10-13T03:48:34;13.60;99.90
42261;DHT22;27926;48.062;7.474;2023-10-13T03:51:16;13.50;99.90
42261;DHT22;27926;48.062;7.474;2023-10-13T03:53:41;13.50;99.90
42261;DHT22;27926;48.062;7.474;2023-10-13T03:56:19;13.50;99.90
42261;DHT22;27926;48.062;7.474;2023-10-13T03:58:54;13.50;99.90
42261;DHT22;27926;48.062;7.474;2023-10-13T04:01:22;13.50;99.90
42261;DHT22;27926;48.062;7.474;2023-10-13T04:03:57;13.50;99.90
42261;DHT22;27926;48.062;7.474;2023-10-13T04:06:21;13.50;99.90
42261;DHT22;27926;48.062;7.474;2023-10-13T04:09:06;13.40;99.90
42261;DHT22;27926;48.062;7.474;2023-10-13T04:11:49;13.30;99.90
42261;DHT22;27926;48.062;7.474;2023-10-13T04:14:38;13.20;99.90
42261;DHT22;27926;48.062;7.474;2023-10-13T04:17:22;13.10;99.90
42261;DHT22;27926;48.062;7.474;2023-10-13T04:19:46;13.10;99.90
42261;DHT22;27926;48.062;7.474;2023-10-13T04:22:29;13.00;99.90
42261;DHT22;27926;48.062;7.474;2023-10-13T04:27:55;13.00;99.90
42261;DHT22;27926;48.062;7.474;2023-10-13T04:30:41;12.90;99.90
42261;DHT22;27926;48.062;7.474;2023-10-13T04:33:21;12.90;99.90
42261;DHT22;27926;48.062;7.474;2023-10-13T04:38:56;12.80;99.90
42261;DHT22;27926;48.062;7.474;2023-10-13T04:41:40;12.90;99.90
42261;DHT22;27926;48.062;7.474;2023-10-13T04:44:22;12.80;99.90
42261;DHT22;27926;48.062;7.474;2023-10-13T04:47:05;12.80;99.90
42261;DHT22;27926;48.062;7.474;2023-10-13T04:49:39;12.80;99.90
42261;DHT22;27926;48.062;7.474;2023-10-13T04:52:06;12.80;99.90
42261;DHT22;27926;48.062;7.474;2023-10-13T04:54:44;12.80;99.90
42261;DHT22;27926;48.062;7.474;2023-10-13T04:57:12;12.70;99.90
42261;DHT22;27926;48.062;7.474;2023-10-13T04:59:56;12.70;99.90
42261;DHT22;27926;48.062;7.474;2023-10-13T05:02:39;12.70;99.90
42261;DHT22;27926;48.062;7.474;2023-10-13T05:05:08;12.60;99.90
42261;DHT22;27926;48.062;7.474;2023-10-13T05:07:46;12.60;99.90
42261;DHT22;27926;48.062;7.474;2023-10-13T05:10:30;12.50;99.90
42261;DHT22;27926;48.062;7.474;2023-10-13T05:13:13;12.30;99.90
42261;DHT22;27926;48.062;7.474;2023-10-13T05:15:56;12.20;99.90
42261;DHT22;27926;48.062;7.474;2023-10-13T05:18:39;12.30;99.90
42261;DHT22;27926;48.062;7.474;2023-10-13T05:21:22;12.30;99.90
42261;DHT22;27926;48.062;7.474;2023-10-13T05:24:06;12.40;99.90
42261;DHT22;27926;48.062;7.474;2023-10-13T05:26:49;12.50;99.90
42261;DHT22;27926;48.062;7.474;2023-10-13T05:29:32;12.60;99.90
42261;DHT22;27926;48.062;7.474;2023-10-13T05:32:15;12.80;99.90
42261;DHT22;27926;48.062;7.474;2023-10-13T05:34:58;12.80;99.90
42261;DHT22;27926;48.062;7.474;2023-10-13T05:37:41;12.90;99.90
42261;DHT22;27926;48.062;7.474;2023-10-13T05:40:24;13.00;99.90
42261;DHT22;27926;48.062;7.474;2023-10-13T05:43:07;13.10;99.90
42261;DHT22;27926;48.062;7.474;2023-10-13T05:45:50;13.10;99.90
42261;DHT22;27926;48.062;7.474;2023-10-13T05:48:46;13.20;99.90
42261;DHT22;27926;48.062;7.474;2023-10-13T05:51:26;13.20;99.90
42261;DHT22;27926;48.062;7.474;2023-10-13T05:53:58;13.20;99.90
42261;DHT22;27926;48.062;7.474;2023-10-13T05:56:38;13.30;99.90
42261;DHT22;27926;48.062;7.474;2023-10-13T05:59:21;13.40;99.90
42261;DHT22;27926;48.062;7.474;2023-10-13T06:02:04;13.40;99.90
42261;DHT22;27926;48.062;7.474;2023-10-13T06:04:48;13.60;99.90
42261;DHT22;27926;48.062;7.474;2023-10-13T06:07:31;13.70;99.90
42261;DHT22;27926;48.062;7.474;2023-10-13T06:10:14;13.80;99.90
42261;DHT22;27926;48.062;7.474;2023-10-13T06:12:57;14.00;99.90
42261;DHT22;27926;48.062;7.474;2023-10-13T06:15:40;14.10;99.90
42261;DHT22;27926;48.062;7.474;2023-10-13T06:18:23;14.20;99.90
42261;DHT22;27926;48.062;7.474;2023-10-13T06:21:09;14.30;99.90
42261;DHT22;27926;48.062;7.474;2023-10-13T06:23:52;14.50;99.90
42261;DHT22;27926;48.062;7.474;2023-10-13T06:26:36;14.60;99.90
42261;DHT22;27926;48.062;7.474;2023-10-13T06:29:19;14.70;99.90
42261;DHT22;27926;48.062;7.474;2023-10-13T06:31:44;14.80;99.90
42261;DHT22;27926;48.062;7.474;2023-10-13T06:34:10;14.90;99.90
42261;DHT22;27926;48.062;7.474;2023-10-13T06:36:40;14.90;99.90
42261;DHT22;27926;48.062;7.474;2023-10-13T06:39:04;15.10;99.90
42261;DHT22;27926;48.062;7.474;2023-10-13T06:41:47;15.20;99.90
42261;DHT22;27926;48.062;7.474;2023-10-13T06:44:12;15.30;99.90
42261;DHT22;27926;48.062;7.474;2023-10-13T06:46:40;15.40;99.90
42261;DHT22;27926;48.062;7.474;2023-10-13T06:49:04;15.60;99.90
42261;DHT22;27926;48.062;7.474;2023-10-13T06:51:29;15.70;99.90
42261;DHT22;27926;48.062;7.474;2023-10-13T06:54:02;15.80;99.90
42261;DHT22;27926;48.062;7.474;2023-10-13T06:56:26;15.90;99.90
42261;DHT22;27926;48.062;7.474;2023-10-13T06:58:55;16.00;99.90
42261;DHT22;27926;48.062;7.474;2023-10-13T07:01:23;16.10;99.90
42261;DHT22;27926;48.062;7.474;2023-10-13T07:03:48;16.10;99.90
42261;DHT22;27926;48.062;7.474;2023-10-13T07:06:25;16.00;99.90
42261;DHT22;27926;48.062;7.474;2023-10-13T07:08:49;16.00;99.90
42261;DHT22;27926;48.062;7.474;2023-10-13T07:11:27;15.90;99.90
42261;DHT22;27926;48.062;7.474;2023-10-13T07:13:57;15.90;99.90
42261;DHT22;27926;48.062;7.474;2023-10-13T07:16:23;16.00;99.90
42261;DHT22;27926;48.062;7.474;2023-10-13T07:18:47;16.00;99.90
42261;DHT22;27926;48.062;7.474;2023-10-13T07:21:17;16.10;99.90
42261;DHT22;27926;48.062;7.474;2023-10-13T07:23:48;16.20;99.90
42261;DHT22;27926;48.062;7.474;2023-10-13T07:26:25;16.30;99.90
42261;DHT22;27926;48.062;7.474;2023-10-13T07:28:49;16.50;99.90
42261;DHT22;27926;48.062;7.474;2023-10-13T07:31:16;16.60;99.90
42261;DHT22;27926;48.062;7.474;2023-10-13T07:33:41;16.60;99.90
42261;DHT22;27926;48.062;7.474;2023-10-13T07:36:09;16.70;99.90
42261;DHT22;27926;48.062;7.474;2023-10-13T07:38:40;16.80;99.90
42261;DHT22;27926;48.062;7.474;2023-10-13T07:41:06;17.00;99.90
42261;DHT22;27926;48.062;7.474;2023-10-13T07:43:34;17.10;99.90
42261;DHT22;27926;48.062;7.474;2023-10-13T07:45:58;17.20;99.90
42261;DHT22;27926;48.062;7.474;2023-10-13T07:48:31;17.40;99.90
42261;DHT22;27926;48.062;7.474;2023-10-13T07:53:25;17.70;99.90
42261;DHT22;27926;48.062;7.474;2023-10-13T07:55:54;17.90;99.90
42261;DHT22;27926;48.062;7.474;2023-10-13T07:58:25;18.10;99.90
42261;DHT22;27926;48.062;7.474;2023-10-13T08:00:53;18.30;99.90
42261;DHT22;27926;48.062;7.474;2023-10-13T08:03:38;18.40;99.90
42261;DHT22;27926;48.062;7.474;2023-10-13T08:06:10;18.50;99.90
42261;DHT22;27926;48.062;7.474;2023-10-13T08:08:34;18.60;99.90
42261;DHT22;27926;48.062;7.474;2023-10-13T08:11:02;18.70;99.90
42261;DHT22;27926;48.062;7.474;2023-10-13T08:13:35;18.70;99.90
42261;DHT22;27926;48.062;7.474;2023-10-13T08:16:01;18.80;99.90
42261;DHT22;27926;48.062;7.474;2023-10-13T08:18:32;18.90;99.90
42261;DHT22;27926;48.062;7.474;2023-10-13T08:21:02;19.00;99.90
42261;DHT22;27926;48.062;7.474;2023-10-13T08:23:31;19.10;99.90
42261;DHT22;27926;48.062;7.474;2023-10-13T08:26:14;19.30;99.90
42261;DHT22;27926;48.062;7.474;2023-10-13T08:28:58;19.40;99.90
42261;DHT22;27926;48.062;7.474;2023-10-13T08:31:43;19.50;99.90
42261;DHT22;27926;48.062;7.474;2023-10-13T08:34:14;19.60;99.90
42261;DHT22;27926;48.062;7.474;2023-10-13T08:36:47;19.70;99.90
42261;DHT22;27926;48.062;7.474;2023-10-13T08:39:11;19.70;99.90
42261;DHT22;27926;48.062;7.474;2023-10-13T08:42:02;19.80;99.90
42261;DHT22;27926;48.062;7.474;2023-10-13T08:44:45;19.90;99.90
42261;DHT22;27926;48.062;7.474;2023-10-13T08:47:17;20.00;99.80
42261;DHT22;27926;48.062;7.474;2023-10-13T08:49:49;20.00;99.40
42261;DHT22;27926;48.062;7.474;2023-10-13T08:52:21;20.00;99.10
42261;DHT22;27926;48.062;7.474;2023-10-13T08:55:05;19.80;99.00
42261;DHT22;27926;48.062;7.474;2023-10-13T08:57:57;19.70;98.90
42261;DHT22;27926;48.062;7.474;2023-10-13T09:00:27;19.50;98.90
42261;DHT22;27926;48.062;7.474;2023-10-13T09:02:54;19.50;98.80
42261;DHT22;27926;48.062;7.474;2023-10-13T09:05:46;19.50;98.80
42261;DHT22;27926;48.062;7.474;2023-10-13T09:08:27;19.60;98.60
42261;DHT22;27926;48.062;7.474;2023-10-13T09:11:09;19.90;98.30
42261;DHT22;27926;48.062;7.474;2023-10-13T09:13:37;20.00;98.10
42261;DHT22;27926;48.062;7.474;2023-10-13T09:16:14;20.20;98.10
42261;DHT22;27926;48.062;7.474;2023-10-13T09:19:02;20.40;97.80
42261;DHT22;27926;48.062;7.474;2023-10-13T09:21:29;20.70;97.60
42261;DHT22;27926;48.062;7.474;2023-10-13T09:24:13;21.10;96.80
42261;DHT22;27926;48.062;7.474;2023-10-13T09:26:46;21.50;96.10
42261;DHT22;27926;48.062;7.474;2023-10-13T09:29:19;22.00;94.80
42261;DHT22;27926;48.062;7.474;2023-10-13T09:31:47;22.50;93.20
42261;DHT22;27926;48.062;7.474;2023-10-13T09:34:22;22.90;92.80
42261;DHT22;27926;48.062;7.474;2023-10-13T09:36:48;23.20;91.70
42261;DHT22;27926;48.062;7.474;2023-10-13T09:39:19;23.40;90.80
42261;DHT22;27926;48.062;7.474;2023-10-13T09:42:08;23.70;90.50
42261;DHT22;27926;48.062;7.474;2023-10-13T09:44:34;23.90;90.50
42261;DHT22;27926;48.062;7.474;2023-10-13T09:47:03;24.00;90.00
42261;DHT22;27926;48.062;7.474;2023-10-13T09:49:44;24.30;89.50
42261;DHT22;27926;48.062;7.474;2023-10-13T09:52:18;24.30;88.70
42261;DHT22;27926;48.062;7.474;2023-10-13T09:55:10;24.40;87.60
42261;DHT22;27926;48.062;7.474;2023-10-13T09:57:41;24.40;87.60
42261;DHT22;27926;48.062;7.474;2023-10-13T10:00:18;24.50;87.10
42261;DHT22;27926;48.062;7.474;2023-10-13T10:03:09;24.60;86.80
42261;DHT22;27926;48.062;7.474;2023-10-13T10:05:39;24.60;86.90
42261;DHT22;27926;48.062;7.474;2023-10-13T10:08:04;24.70;87.10
42261;DHT22;27926;48.062;7.474;2023-10-13T10:10:46;24.70;86.40
42261;DHT22;27926;48.062;7.474;2023-10-13T10:14:07;24.90;86.00
42261;DHT22;27926;48.062;7.474;2023-10-13T10:16:24;24.70;85.10
42261;DHT22;27926;48.062;7.474;2023-10-13T10:19:00;25.00;84.90
42261;DHT22;27926;48.062;7.474;2023-10-13T10:21:36;25.10;84.00
42261;DHT22;27926;48.062;7.474;2023-10-13T10:24:02;25.20;84.10
42261;DHT22;27926;48.062;7.474;2023-10-13T10:26:32;25.20;83.70
42261;DHT22;27926;48.062;7.474;2023-10-13T10:28:57;25.30;83.80
42261;DHT22;27926;48.062;7.474;2023-10-13T10:31:31;25.40;84.80
42261;DHT22;27926;48.062;7.474;2023-10-13T10:33:59;25.40;83.20
42261;DHT22;27926;48.062;7.474;2023-10-13T10:36:34;25.40;83.10
42261;DHT22;27926;48.062;7.474;2023-10-13T10:38:59;25.50;83.20
42261;DHT22;27926;48.062;7.474;2023-10-13T10:41:28;25.60;83.20
42261;DHT22;27926;48.062;7.474;2023-10-13T10:44:16;25.60;82.00
42261;DHT22;27926;48.062;7.474;2023-10-13T10:46:41;25.60;84.00
42261;DHT22;27926;48.062;7.474;2023-10-13T10:49:06;25.80;83.60
42261;DHT22;27926;48.062;7.474;2023-10-13T10:51:33;25.90;83.10
42261;DHT22;27926;48.062;7.474;2023-10-13T10:54:05;26.00;83.50
42261;DHT22;27926;48.062;7.474;2023-10-13T10:56:36;26.10;83.10
42261;DHT22;27926;48.062;7.474;2023-10-13T10:59:01;26.20;83.10
42261;DHT22;27926;48.062;7.474;2023-10-13T11:01:28;26.20;82.60
42261;DHT22;27926;48.062;7.474;2023-10-13T11:04:03;26.20;82.10
42261;DHT22;27926;48.062;7.474;2023-10-13T11:07:00;26.30;81.80
42261;DHT22;27926;48.062;7.474;2023-10-13T11:09:32;26.40;82.50
42261;DHT22;27926;48.062;7.474;2023-10-13T11:15:04;26.50;81.90
42261;DHT22;27926;48.062;7.474;2023-10-13T11:17:48;26.60;81.30
42261;DHT22;27926;48.062;7.474;2023-10-13T11:20:17;26.60;81.80
42261;DHT22;27926;48.062;7.474;2023-10-13T11:22:52;26.30;81.30
42261;DHT22;27926;48.062;7.474;2023-10-13T11:25:25;26.10;81.90
42261;DHT22;27926;48.062;7.474;2023-10-13T11:28:13;25.80;81.40
42261;DHT22;27926;48.062;7.474;2023-10-13T11:30:56;25.50;82.60
42261;DHT22;27926;48.062;7.474;2023-10-13T11:33:26;25.20;82.50
42261;DHT22;27926;48.062;7.474;2023-10-13T11:35:53;25.00;83.30
42261;DHT22;27926;48.062;7.474;2023-10-13T11:38:28;24.90;83.40
42261;DHT22;27926;48.062;7.474;2023-10-13T11:40:58;24.80;83.00
42261;DHT22;27926;48.062;7.474;2023-10-13T11:43:29;24.80;82.80
42261;DHT22;27926;48.062;7.474;2023-10-13T11:45:56;24.80;83.40
42261;DHT22;27926;48.062;7.474;2023-10-13T11:48:38;24.80;83.30
42261;DHT22;27926;48.062;7.474;2023-10-13T11:51:03;24.90;83.30
42261;DHT22;27926;48.062;7.474;2023-10-13T11:53:31;24.90;83.50
42261;DHT22;27926;48.062;7.474;2023-10-13T11:55:56;25.10;82.90
42261;DHT22;27926;48.062;7.474;2023-10-13T11:58:21;25.20;82.90
42261;DHT22;27926;48.062;7.474;2023-10-13T12:00:45;25.70;81.70
42261;DHT22;27926;48.062;7.474;2023-10-13T12:03:19;26.30;80.90
42261;DHT22;27926;48.062;7.474;2023-10-13T12:06:02;26.70;80.20
42261;DHT22;27926;48.062;7.474;2023-10-13T12:08:57;27.10;78.80
42261;DHT22;27926;48.062;7.474;2023-10-13T12:11:35;27.40;78.50
42261;DHT22;27926;48.062;7.474;2023-10-13T12:14:03;27.70;77.20
42261;DHT22;27926;48.062;7.474;2023-10-13T12:16:36;27.70;77.40
42261;DHT22;27926;48.062;7.474;2023-10-13T12:19:00;27.80;75.90
42261;DHT22;27926;48.062;7.474;2023-10-13T12:21:28;27.70;76.50
42261;DHT22;27926;48.062;7.474;2023-10-13T12:23:53;27.70;76.60
42261;DHT22;27926;48.062;7.474;2023-10-13T12:26:18;27.70;76.50
42261;DHT22;27926;48.062;7.474;2023-10-13T12:28:56;27.70;75.30
42261;DHT22;27926;48.062;7.474;2023-10-13T12:31:30;27.70;75.40
42261;DHT22;27926;48.062;7.474;2023-10-13T12:33:56;27.70;74.50
42261;DHT22;27926;48.062;7.474;2023-10-13T12:36:30;27.70;74.80
42261;DHT22;27926;48.062;7.474;2023-10-13T12:39:01;27.70;74.70
42261;DHT22;27926;48.062;7.474;2023-10-13T12:41:45;27.70;74.80
42261;DHT22;27926;48.062;7.474;2023-10-13T12:44:28;27.70;73.90
42261;DHT22;27926;48.062;7.474;2023-10-13T12:47:11;27.70;74.50
42261;DHT22;27926;48.062;7.474;2023-10-13T12:49:54;27.70;73.70
42261;DHT22;27926;48.062;7.474;2023-10-13T12:52:33;27.70;72.40
42261;DHT22;27926;48.062;7.474;2023-10-13T12:55:00;27.80;72.10
42261;DHT22;27926;48.062;7.474;2023-10-13T12:57:31;27.80;71.20
42261;DHT22;27926;48.062;7.474;2023-10-13T12:59:57;27.90;70.80
42261;DHT22;27926;48.062;7.474;2023-10-13T13:02:26;27.90;69.90
42261;DHT22;27926;48.062;7.474;2023-10-13T13:04:54;27.90;69.60
42261;DHT22;27926;48.062;7.474;2023-10-13T13:07:26;28.10;69.50
42261;DHT22;27926;48.062;7.474;2023-10-13T13:09:56;28.00;69.60
42261;DHT22;27926;48.062;7.474;2023-10-13T13:12:24;28.10;69.00
42261;DHT22;27926;48.062;7.474;2023-10-13T13:14:49;28.10;68.20
42261;DHT22;27926;48.062;7.474;2023-10-13T13:17:19;28.20;67.70
42261;DHT22;27926;48.062;7.474;2023-10-13T13:19:43;28.20;67.60
42261;DHT22;27926;48.062;7.474;2023-10-13T13:22:08;28.20;67.60
42261;DHT22;27926;48.062;7.474;2023-10-13T13:24:36;28.20;66.50
42261;DHT22;27926;48.062;7.474;2023-10-13T13:27:07;28.30;65.70
42261;DHT22;27926;48.062;7.474;2023-10-13T13:29:32;28.20;65.20
42261;DHT22;27926;48.062;7.474;2023-10-13T13:31:57;28.20;65.20
42261;DHT22;27926;48.062;7.474;2023-10-13T13:34:21;28.20;66.70
42261;DHT22;27926;48.062;7.474;2023-10-13T13:36:46;28.20;66.00
42261;DHT22;27926;48.062;7.474;2023-10-13T13:39:16;28.10;66.60
42261;DHT22;27926;48.062;7.474;2023-10-13T13:41:51;28.20;66.30
42261;DHT22;27926;48.062;7.474;2023-10-13T13:44:24;28.10;66.30
42261;DHT22;27926;48.062;7.474;2023-10-13T13:47:00;28.10;66.10
42261;DHT22;27926;48.062;7.474;2023-10-13T13:49:24;28.10;66.40
42261;DHT22;27926;48.062;7.474;2023-10-13T13:52:04;28.10;65.10
42261;DHT22;27926;48.062;7.474;2023-10-13T13:54:29;28.10;65.30
42261;DHT22;27926;48.062;7.474;2023-10-13T13:56:54;28.20;65.00
42261;DHT22;27926;48.062;7.474;2023-10-13T13:59:18;28.20;64.30
42261;DHT22;27926;48.062;7.474;2023-10-13T14:01:44;28.20;64.70
42261;DHT22;27926;48.062;7.474;2023-10-13T14:04:09;28.20;65.00
42261;DHT22;27926;48.062;7.474;2023-10-13T14:06:33;28.20;65.10
42261;DHT22;27926;48.062;7.474;2023-10-13T14:09:00;28.20;65.10
42261;DHT22;27926;48.062;7.474;2023-10-13T14:11:29;28.20;65.70
42261;DHT22;27926;48.062;7.474;2023-10-13T14:14:02;28.10;65.10
42261;DHT22;27926;48.062;7.474;2023-10-13T14:16:28;28.10;65.30
42261;DHT22;27926;48.062;7.474;2023-10-13T14:18:53;28.20;64.60
42261;DHT22;27926;48.062;7.474;2023-10-13T14:21:18;28.20;64.90
42261;DHT22;27926;48.062;7.474;2023-10-13T14:23:44;28.20;65.50
42261;DHT22;27926;48.062;7.474;2023-10-13T14:26:13;28.10;65.10
42261;DHT22;27926;48.062;7.474;2023-10-13T14:28:38;28.10;64.80
42261;DHT22;27926;48.062;7.474;2023-10-13T14:31:14;28.10;64.90
42261;DHT22;27926;48.062;7.474;2023-10-13T14:33:39;28.10;64.90
42261;DHT22;27926;48.062;7.474;2023-10-13T14:36:03;28.00;65.30
42261;DHT22;27926;48.062;7.474;2023-10-13T14:38:29;28.00;65.10
42261;DHT22;27926;48.062;7.474;2023-10-13T14:40:57;28.00;64.80
42261;DHT22;27926;48.062;7.474;2023-10-13T14:43:22;28.00;64.80
42261;DHT22;27926;48.062;7.474;2023-10-13T14:45:47;27.90;65.50
42261;DHT22;27926;48.062;7.474;2023-10-13T14:48:12;27.90;64.90
42261;DHT22;27926;48.062;7.474;2023-10-13T14:50:39;27.90;65.20
42261;DHT22;27926;48.062;7.474;2023-10-13T14:53:07;27.80;65.00
42261;DHT22;27926;48.062;7.474;2023-10-13T14:55:33;27.80;64.90
42261;DHT22;27926;48.062;7.474;2023-10-13T14:58:03;27.70;64.80
42261;DHT22;27926;48.062;7.474;2023-10-13T15:00:28;27.70;64.70
42261;DHT22;27926;48.062;7.474;2023-10-13T15:02:54;27.60;64.40
42261;DHT22;27926;48.062;7.474;2023-10-13T15:05:19;27.60;65.30
42261;DHT22;27926;48.062;7.474;2023-10-13T15:07:44;27.50;64.20
42261;DHT22;27926;48.062;7.474;2023-10-13T15:10:09;27.60;62.50
42261;DHT22;27926;48.062;7.474;2023-10-13T15:12:39;27.50;62.40
42261;DHT22;27926;48.062;7.474;2023-10-13T15:15:05;27.50;61.90
42261;DHT22;27926;48.062;7.474;2023-10-13T15:17:37;27.50;62.60
42261;DHT22;27926;48.062;7.474;2023-10-13T15:20:03;27.50;62.60
42261;DHT22;27926;48.062;7.474;2023-10-13T15:22:30;27.40;62.80
42261;DHT22;27926;48.062;7.474;2023-10-13T15:24:55;27.40;61.70
42261;DHT22;27926;48.062;7.474;2023-10-13T15:27:35;27.40;62.00
42261;DHT22;27926;48.062;7.474;2023-10-13T15:30:06;27.40;61.40
42261;DHT22;27926;48.062;7.474;2023-10-13T15:32:44;27.30;61.60
42261;DHT22;27926;48.062;7.474;2023-10-13T15:35:09;27.30;61.50
42261;DHT22;27926;48.062;7.474;2023-10-13T15:37:36;27.30;62.00
42261;DHT22;27926;48.062;7.474;2023-10-13T15:40:01;27.20;61.10
42261;DHT22;27926;48.062;7.474;2023-10-13T15:42:28;27.20;61.00
42261;DHT22;27926;48.062;7.474;2023-10-13T15:44:56;27.20;61.70
42261;DHT22;27926;48.062;7.474;2023-10-13T15:47:20;27.10;62.60
42261;DHT22;27926;48.062;7.474;2023-10-13T15:49:45;27.00;62.20
42261;DHT22;27926;48.062;7.474;2023-10-13T15:52:10;27.00;62.60
42261;DHT22;27926;48.062;7.474;2023-10-13T15:54:34;26.90;62.60
42261;DHT22;27926;48.062;7.474;2023-10-13T15:56:59;26.80;62.80
42261;DHT22;27926;48.062;7.474;2023-10-13T15:59:25;26.70;62.70
42261;DHT22;27926;48.062;7.474;2023-10-13T16:01:49;26.70;63.80
42261;DHT22;27926;48.062;7.474;2023-10-13T16:04:19;26.50;63.30
42261;DHT22;27926;48.062;7.474;2023-10-13T16:06:45;26.50;63.90
42261;DHT22;27926;48.062;7.474;2023-10-13T16:09:14;26.40;63.40